Terminal Aerodrome Forecast
Issued by NWS Denver/Boulder, CO

Home | Current Version | Previous Version | Text Only | Print | Product List | Glossary On
Versions: 1 2 3 4 5 6 7 8 9 10 11 12 13 14 15 16 17 18 19 20 21 22 23 24 25 26 27 28 29 30 31 32 33 34 35 36 37 38 39
000
FTUS45 KBOU 292308 AAD
TAFDEN
TAF AMD
KDEN 292308Z 2923/3024 14016G24KT P6SM SCT090 SCT110 BKN140
     FM300000 29012KT P6SM VCTS SCT080CB BKN120 BKN220
      TEMPO 3000/3001 33014G22KT -TSRA BKN080CB
     FM300200 21008KT P6SM FEW080 SCT140 BKN220
     FM301000 21008KT P6SM FEW140
     FM301700 VRB05KT P6SM FEW080 SCT140
     FM302000 05006KT P6SM SCT080 BKN110 PROB30 3020/3024 VRB20G35KT
      -TSRA BKN080CB=

USA.gov is the U.S. government's official web portal to all federal, state and local government web resources and services.